Time;durP1;ratioP1;P1;durP2;ratioP2;P2;SDS_P1;SDS_P2;PMS_P1;PMS_P2;Temp;Humidity;BMP_temperature;BMP_pressure;BME280_temperature;BME280_humidity;BME280_pressure;Samples;Min_cycle;Max_cycle;Signal;HPM_P1;HPM_P2
2022/03/15 00:02:23;;;;;;;;;;;;;;;;;;5073330;28;20002;-75
2022/03/15 00:04:55;;;;;;;;;;;;;;;;;;5073887;28;20002;-76
2022/03/15 00:07:22;;;;;;;;;;;;;;;;;;5073498;28;20406;-74
2022/03/15 00:09:49;;;;;;;;;;;;;;;;;;5073639;28;19970;-74
2022/03/15 00:12:15;;;;;;;;;;;;;;;;;;5074002;28;19946;-75
2022/03/15 00:14:43;;;;;;;;;;;;;;;;;;5074440;28;20235;-75
2022/03/15 00:17:10;;;;;;;;;;;;;;;;;;5070002;28;19972;-75
2022/03/15 00:19:36;;;;;;;;;;;;;;;;;;5061827;28;19943;-74
2022/03/15 00:22:05;;;;;;;;;;;;;;;;;;5070917;28;19950;-74
2022/03/15 00:24:33;;;;;;;;;;;;;;;;;;5073053;28;19968;-75
2022/03/15 00:26:59;;;;;;;;;;;;;;;;;;5073375;28;19946;-74
2022/03/15 00:29:26;;;;;;;;;;;;;;;;;;5073424;28;19968;-75
2022/03/15 00:31:52;;;;;;;;;;;;;;;;;;5072984;28;20057;-75
2022/03/15 00:34:18;;;;;;;;;;;;;;;;;;5073397;28;20110;-75
2022/03/15 00:36:44;;;;;;;;;;;;;;;;;;5073873;28;19957;-75
2022/03/15 00:39:10;;;;;;;;;;;;;;;;;;5073284;28;20300;-75
2022/03/15 00:41:45;;;;;;;;;;;;;;;;;;5072815;28;19983;-75
2022/03/15 00:44:21;;;;;;;;;;;;;;;;;;5073099;28;19964;-76
2022/03/15 00:46:56;;;;;;;;;;;;;;;;;;5069793;28;19992;-75
2022/03/15 00:49:23;;;;;;;;;;;;;;;;;;5059178;28;19941;-75
2022/03/15 00:51:49;;;;;;;;;;;;;;;;;;5072494;28;20261;-74
2022/03/15 00:54:15;;;;;;;;;;;;;;;;;;5072683;28;20122;-75
2022/03/15 00:56:42;;;;;;;;;;;;;;;;;;5073362;28;19924;-75
2022/03/15 00:59:09;;;;;;;;;;;;;;;;;;5073519;28;19932;-75
2022/03/15 01:01:36;;;;;;;;;;;;;;;;;;5073506;28;20151;-74
2022/03/15 01:04:02;;;;;;;;;;;;;;;;;;5072611;28;19959;-74
2022/03/15 01:06:28;;;;;;;;;;;;;;;;;;5073552;28;19932;-74
2022/03/15 01:08:54;;;;;;;;;;;;;;;;;;5072871;28;19962;-76
2022/03/15 01:11:21;;;;;;;;;;;;;;;;;;5072962;28;19952;-75
2022/03/15 01:13:47;;;;;;;;;;;;;;;;;;5073506;28;20219;-76
2022/03/15 01:16:22;;;;;;;;;;;;;;;;;;5073649;28;19948;-76
2022/03/15 01:18:48;;;;;;;;;;;;;;;;;;5058991;28;19940;-75
2022/03/15 01:21:18;;;;;;;;;;;;;;;;;;5071667;28;19939;-75
2022/03/15 01:23:44;;;;;;;;;;;;;;;;;;5071848;28;22241;-75
2022/03/15 01:26:11;;;;;;;;;;;;;;;;;;5073049;28;20411;-76
2022/03/15 01:28:37;;;;;;;;;;;;;;;;;;5072434;28;19950;-75
2022/03/15 01:31:13;;;;;;;;;;;;;;;;;;5072499;28;19947;-74
2022/03/15 01:33:47;;;;;;;;;;;;;;;;;;5072439;28;19956;-74
2022/03/15 01:36:22;;;;;;;;;;;;;;;;;;5072821;28;19954;-74
2022/03/15 01:38:58;;;;;;;;;;;;;;;;;;5071367;28;19958;-74
2022/03/15 01:41:24;;;;;;;;;;;;;;;;;;5071812;28;19990;-74
2022/03/15 01:43:50;;;;;;;;;;;;;;;;;;5071742;28;19924;-74
2022/03/15 01:46:16;;;;;;;;;;;;;;;;;;5073019;28;19969;-74
2022/03/15 01:51:22;;;;;;;;;;;;;;;;;;5078305;28;20025;-74
2022/03/15 01:53:49;;;;;;;;;;;;;;;;;;5075082;28;19978;-73
2022/03/15 01:56:15;;;;;;;;;;;;;;;;;;5071491;28;19955;-74
2022/03/15 01:58:47;;;;;;;;;;;;;;;;;;5071609;28;19956;-73
2022/03/15 02:01:13;;;;;;;;;;;;;;;;;;5071602;28;19947;-74
2022/03/15 02:03:39;;;;;;;;;;;;;;;;;;5070944;28;19963;-73
2022/03/15 02:06:06;;;;;;;;;;;;;;;;;;5070788;28;19966;-74
2022/03/15 02:08:34;;;;;;;;;;;;;;;;;;5071408;28;19949;-73
2022/03/15 02:11:00;;;;;;;;;;;;;;;;;;5071418;28;19950;-73
2022/03/15 02:13:29;;;;;;;;;;;;;;;;;;5070985;28;20076;-74
2022/03/15 02:15:55;;;;;;;;;;;;;;;;;;5071020;28;19971;-75
2022/03/15 02:18:25;;;;;;;;;;;;;;;;;;5057950;28;20320;-75
2022/03/15 02:20:51;;;;;;;;;;;;;;;;;;5065678;28;19941;-76
2022/03/15 02:23:17;;;;;;;;;;;;;;;;;;5071156;28;19946;-75
2022/03/15 02:25:43;;;;;;;;;;;;;;;;;;5070732;28;20482;-76
2022/03/15 02:28:09;;;;;;;;;;;;;;;;;;5071312;28;19943;-75
2022/03/15 02:30:36;;;;;;;;;;;;;;;;;;5071075;28;19943;-76
2022/03/15 02:33:02;;;;;;;;;;;;;;;;;;5070391;28;20027;-76
2022/03/15 02:35:28;;;;;;;;;;;;;;;;;;5070763;28;19969;-75
2022/03/15 02:37:54;;;;;;;;;;;;;;;;;;5070680;28;19949;-76
2022/03/15 02:40:20;;;;;;;;;;;;;;;;;;5071148;28;19978;-75
2022/03/15 02:42:46;;;;;;;;;;;;;;;;;;5070619;28;20105;-75
2022/03/15 02:45:16;;;;;;;;;;;;;;;;;;5070599;28;19960;-76
2022/03/15 02:47:48;;;;;;;;;;;;;;;;;;5062678;28;19971;-75
2022/03/15 02:50:14;;;;;;;;;;;;;;;;;;5063382;28;19942;-76
2022/03/15 02:52:41;;;;;;;;;;;;;;;;;;5074049;28;20445;-76
2022/03/15 02:55:07;;;;;;;;;;;;;;;;;;5074816;28;19971;-74
2022/03/15 02:57:33;;;;;;;;;;;;;;;;;;5074720;28;19949;-76
2022/03/15 02:59:59;;;;;;;;;;;;;;;;;;5074481;28;19959;-75
2022/03/15 03:02:25;;;;;;;;;;;;;;;;;;5074623;28;20020;-75
2022/03/15 03:04:51;;;;;;;;;;;;;;;;;;5074651;28;19982;-76
2022/03/15 03:07:19;;;;;;;;;;;;;;;;;;5074779;28;19971;-74
2022/03/15 03:09:45;;;;;;;;;;;;;;;;;;5074545;28;19972;-73
2022/03/15 03:12:16;;;;;;;;;;;;;;;;;;5074373;28;20004;-74
2022/03/15 03:14:45;;;;;;;;;;;;;;;;;;5074613;28;20364;-74
2022/03/15 03:17:11;;;;;;;;;;;;;;;;;;5072828;28;20443;-73
2022/03/15 03:19:38;;;;;;;;;;;;;;;;;;5062431;28;19963;-74
2022/03/15 03:22:05;;;;;;;;;;;;;;;;;;5069545;28;19970;-76
2022/03/15 03:24:31;;;;;;;;;;;;;;;;;;5063126;28;20011;-76
2022/03/15 03:26:57;;;;;;;;;;;;;;;;;;5092672;28;19993;-76
2022/03/15 03:29:25;;;;;;;;;;;;;;;;;;5090507;28;19980;-75
2022/03/15 03:31:51;;;;;;;;;;;;;;;;;;5076217;28;20023;-75
2022/03/15 03:34:17;;;;;;;;;;;;;;;;;;5074754;28;19994;-75
2022/03/15 03:36:43;;;;;;;;;;;;;;;;;;5074355;28;19988;-76
2022/03/15 03:39:10;;;;;;;;;;;;;;;;;;5074209;28;19983;-76
2022/03/15 03:44:16;;;;;;;;;;;;;;;;;;5072606;28;19993;-74
2022/03/15 03:46:42;;;;;;;;;;;;;;;;;;5073462;28;20026;-77
2022/03/15 03:49:08;;;;;;;;;;;;;;;;;;5065543;28;20002;-74
2022/03/15 03:51:36;;;;;;;;;;;;;;;;;;5072902;28;20002;-76
2022/03/15 03:54:03;;;;;;;;;;;;;;;;;;5073546;28;19993;-76
2022/03/15 03:56:29;;;;;;;;;;;;;;;;;;5074319;28;20415;-74
2022/03/15 03:58:55;;;;;;;;;;;;;;;;;;5073827;28;19993;-74
2022/03/15 04:04:05;;;;;;;;;;;;;;;;;;5072095;28;19987;-75
2022/03/15 04:06:31;;;;;;;;;;;;;;;;;;5074195;28;19996;-74
2022/03/15 04:09:06;;;;;;;;;;;;;;;;;;5074113;28;20027;-75
2022/03/15 04:11:33;;;;;;;;;;;;;;;;;;5076451;28;19992;-75
2022/03/15 04:13:59;;;;;;;;;;;;;;;;;;5092745;28;19995;-74
2022/03/15 04:16:25;;;;;;;;;;;;;;;;;;5089866;28;20022;-74
2022/03/15 04:18:57;;;;;;;;;;;;;;;;;;5077995;28;20624;-74
2022/03/15 04:21:33;;;;;;;;;;;;;;;;;;5068292;28;19959;-73
2022/03/15 04:23:59;;;;;;;;;;;;;;;;;;5073191;28;19997;-76
2022/03/15 04:26:25;;;;;;;;;;;;;;;;;;5074118;28;19986;-76
2022/03/15 04:28:51;;;;;;;;;;;;;;;;;;5074396;28;20001;-74
2022/03/15 04:31:17;;;;;;;;;;;;;;;;;;5073700;28;19992;-76
2022/03/15 04:33:44;;;;;;;;;;;;;;;;;;5073759;28;19984;-75
2022/03/15 04:36:10;;;;;;;;;;;;;;;;;;5073572;28;19979;-74
2022/03/15 04:38:36;;;;;;;;;;;;;;;;;;5073363;28;20169;-76
2022/03/15 04:41:02;;;;;;;;;;;;;;;;;;5073768;28;19987;-76
2022/03/15 04:43:28;;;;;;;;;;;;;;;;;;5073136;28;19983;-76
2022/03/15 04:45:54;;;;;;;;;;;;;;;;;;5071180;28;19993;-76
2022/03/15 04:51:11;;;;;;;;;;;;;;;;;;5072961;28;19972;-77
2022/03/15 04:53:37;;;;;;;;;;;;;;;;;;5072177;28;20517;-75
2022/03/15 04:58:43;;;;;;;;;;;;;;;;;;5071549;28;20495;-75
2022/03/15 05:01:09;;;;;;;;;;;;;;;;;;5073328;28;20007;-74
2022/03/15 05:03:36;;;;;;;;;;;;;;;;;;5072909;28;20015;-75
2022/03/15 05:06:02;;;;;;;;;;;;;;;;;;5072826;28;19992;-76
2022/03/15 05:08:28;;;;;;;;;;;;;;;;;;5072642;28;19956;-75
2022/03/15 05:11:07;;;;;;;;;;;;;;;;;;5072950;28;19981;-76
2022/03/15 05:13:35;;;;;;;;;;;;;;;;;;5072145;28;20002;-76
2022/03/15 05:16:01;;;;;;;;;;;;;;;;;;5073123;28;20102;-77
2022/03/15 05:18:34;;;;;;;;;;;;;;;;;;5060552;28;19973;-77
2022/03/15 05:21:00;;;;;;;;;;;;;;;;;;5068156;28;19988;-75
2022/03/15 05:23:26;;;;;;;;;;;;;;;;;;5065454;28;19980;-73
2022/03/15 05:25:52;;;;;;;;;;;;;;;;;;5073283;28;19999;-75
2022/03/15 05:28:18;;;;;;;;;;;;;;;;;;5072566;28;20000;-74
2022/03/15 05:30:45;;;;;;;;;;;;;;;;;;5073552;28;20350;-74
2022/03/15 05:33:11;;;;;;;;;;;;;;;;;;5073423;28;20485;-74
2022/03/15 05:35:37;;;;;;;;;;;;;;;;;;5074395;28;20022;-75
2022/03/15 05:38:04;;;;;;;;;;;;;;;;;;5073122;28;20482;-75
2022/03/15 05:40:30;;;;;;;;;;;;;;;;;;5073251;28;20443;-76
2022/03/15 05:43:02;;;;;;;;;;;;;;;;;;5072777;28;20231;-75
2022/03/15 05:45:37;;;;;;;;;;;;;;;;;;5072844;28;20461;-75
2022/03/15 05:48:03;;;;;;;;;;;;;;;;;;5070730;28;20326;-76
2022/03/15 05:50:29;;;;;;;;;;;;;;;;;;5065871;28;20016;-75
2022/03/15 05:52:55;;;;;;;;;;;;;;;;;;5072074;28;20404;-75
2022/03/15 05:55:21;;;;;;;;;;;;;;;;;;5086884;22;19989;-61
2022/03/15 05:57:47;;;;;;;;;;;;;;;;;;5065359;28;20024;-62
2022/03/15 06:00:15;;;;;;;;;;;;;;;;;;5069422;28;20300;-62
2022/03/15 06:02:41;;;;;;;;;;;;;;;;;;5069765;28;19980;-69
2022/03/15 06:05:17;;;;;;;;;;;;;;;;;;5069572;28;19995;-70
2022/03/15 06:07:44;;;;;;;;;;;;;;;;;;5069542;28;20007;-70
2022/03/15 06:10:10;;;;;;;;;;;;;;;;;;5069898;28;19991;-71
2022/03/15 06:12:36;;;;;;;;;;;;;;;;;;5069456;28;19981;-70
2022/03/15 06:15:02;;;;;;;;;;;;;;;;;;5069902;28;19997;-70
2022/03/15 06:17:28;;;;;;;;;;;;;;;;;;4718171;28;9999942;-71
2022/03/15 06:19:54;;;;;;;;;;;;;;;;;;5066095;28;20307;-70
2022/03/15 06:22:20;;;;;;;;;;;;;;;;;;5064221;28;20218;-71
2022/03/15 06:24:47;;;;;;;;;;;;;;;;;;5066380;28;19996;-70
2022/03/15 06:27:13;;;;;;;;;;;;;;;;;;5067580;28;19989;-70
2022/03/15 06:29:39;;;;;;;;;;;;;;;;;;5067044;28;20026;-70
2022/03/15 06:32:15;;;;;;;;;;;;;;;;;;5066453;28;20737;-70
2022/03/15 06:34:41;;;;;;;;;;;;;;;;;;5066938;28;20000;-70
2022/03/15 06:37:07;;;;;;;;;;;;;;;;;;5067463;28;20457;-71
2022/03/15 06:39:33;;;;;;;;;;;;;;;;;;5066560;28;20034;-70
2022/03/15 06:41:59;;;;;;;;;;;;;;;;;;5066425;28;19987;-71
2022/03/15 06:44:25;;;;;;;;;;;;;;;;;;5066732;28;19997;-71
2022/03/15 06:46:51;;;;;;;;;;;;;;;;;;5062167;28;20317;-71
2022/03/15 06:49:18;;;;;;;;;;;;;;;;;;5065302;28;19981;-71
2022/03/15 06:51:44;;;;;;;;;;;;;;;;;;5066827;28;19981;-71
2022/03/15 06:54:10;;;;;;;;;;;;;;;;;;5066846;28;20072;-72
2022/03/15 06:56:39;;;;;;;;;;;;;;;;;;5067540;28;19981;-72
2022/03/15 06:59:05;;;;;;;;;;;;;;;;;;5067583;28;19985;-72
2022/03/15 07:01:31;;;;;;;;;;;;;;;;;;5066381;28;19989;-71
2022/03/15 07:04:03;;;;;;;;;;;;;;;;;;5066680;28;20001;-71
2022/03/15 07:06:30;;;;;;;;;;;;;;;;;;5067350;28;19968;-72
2022/03/15 07:08:56;;;;;;;;;;;;;;;;;;5070555;28;20215;-72
2022/03/15 07:11:22;;;;;;;;;;;;;;;;;;5073317;28;20195;-73
2022/03/15 07:13:48;;;;;;;;;;;;;;;;;;5074889;28;20013;-73
2022/03/15 07:16:15;;;;;;;;;;;;;;;;;;5077680;28;19981;-73
2022/03/15 07:18:42;;;;;;;;;;;;;;;;;;5075028;28;19977;-73
2022/03/15 07:21:08;;;;;;;;;;;;;;;;;;5073459;28;20567;-73
2022/03/15 07:23:34;;;;;;;;;;;;;;;;;;5068885;28;20001;-73
2022/03/15 07:26:00;;;;;;;;;;;;;;;;;;5068281;28;19985;-73
2022/03/15 07:28:26;;;;;;;;;;;;;;;;;;5068522;28;20052;-73
2022/03/15 07:30:52;;;;;;;;;;;;;;;;;;5068120;28;19990;-73
2022/03/15 07:33:19;;;;;;;;;;;;;;;;;;5067874;28;20103;-73
2022/03/15 07:35:48;;;;;;;;;;;;;;;;;;5068930;28;19983;-73
2022/03/15 07:38:17;;;;;;;;;;;;;;;;;;5071325;28;20400;-73
2022/03/15 07:40:43;;;;;;;;;;;;;;;;;;5071411;28;20522;-73
2022/03/15 07:43:09;;;;;;;;;;;;;;;;;;5070794;28;20046;-73
2022/03/15 07:45:35;;;;;;;;;;;;;;;;;;5071035;28;20038;-73
2022/03/15 07:48:02;;;;;;;;;;;;;;;;;;5066562;28;19997;-73
2022/03/15 07:50:28;;;;;;;;;;;;;;;;;;5070402;28;19989;-73
2022/03/15 07:52:54;;;;;;;;;;;;;;;;;;5071751;28;20015;-73
2022/03/15 07:55:21;;;;;;;;;;;;;;;;;;5071004;28;20000;-73
2022/03/15 07:57:47;;;;;;;;;;;;;;;;;;5057971;28;19983;-73
2022/03/15 08:00:13;;;;;;;;;;;;;;;;;;5071702;28;19987;-73
2022/03/15 08:02:39;;;;;;;;;;;;;;;;;;5069677;28;19985;-73
2022/03/15 08:05:06;;;;;;;;;;;;;;;;;;5070174;28;20031;-73
2022/03/15 08:07:38;;;;;;;;;;;;;;;;;;5069420;28;20189;-73
2022/03/15 08:10:04;;;;;;;;;;;;;;;;;;5070523;28;19987;-72
2022/03/15 08:12:30;;;;;;;;;;;;;;;;;;5069468;28;20355;-73
2022/03/15 08:14:56;;;;;;;;;;;;;;;;;;5078449;28;19994;-73
2022/03/15 08:17:23;;;;;;;;;;;;;;;;;;5069468;28;19972;-73
2022/03/15 08:19:49;;;;;;;;;;;;;;;;;;5057132;28;19978;-73
2022/03/15 08:22:15;;;;;;;;;;;;;;;;;;5059772;28;20096;-74
2022/03/15 08:24:41;;;;;;;;;;;;;;;;;;5069052;28;19999;-73
2022/03/15 08:27:08;;;;;;;;;;;;;;;;;;5069689;28;19995;-73
2022/03/15 08:29:34;;;;;;;;;;;;;;;;;;5069137;28;19989;-74
2022/03/15 08:32:00;;;;;;;;;;;;;;;;;;5069523;28;19983;-74
2022/03/15 08:34:27;;;;;;;;;;;;;;;;;;5069680;28;19998;-74
2022/03/15 08:36:54;;;;;;;;;;;;;;;;;;5071729;28;19987;-74
2022/03/15 08:39:21;;;;;;;;;;;;;;;;;;5069444;28;19998;-74
2022/03/15 08:41:50;;;;;;;;;;;;;;;;;;5069621;28;19977;-74
2022/03/15 08:44:17;;;;;;;;;;;;;;;;;;5069155;28;20067;-74
2022/03/15 08:46:44;;;;;;;;;;;;;;;;;;5064701;28;20001;-75
2022/03/15 08:49:10;;;;;;;;;;;;;;;;;;5057665;28;20266;-75
2022/03/15 08:51:36;;;;;;;;;;;;;;;;;;5068653;28;20370;-74
2022/03/15 08:54:03;;;;;;;;;;;;;;;;;;5068657;28;20006;-74
2022/03/15 08:56:29;;;;;;;;;;;;;;;;;;5068369;28;20465;-74
2022/03/15 08:58:55;;;;;;;;;;;;;;;;;;5068644;28;19981;-75
2022/03/15 09:01:21;;;;;;;;;;;;;;;;;;5069344;28;19970;-75
2022/03/15 09:03:47;;;;;;;;;;;;;;;;;;5068507;28;20013;-75
2022/03/15 09:06:13;;;;;;;;;;;;;;;;;;5068511;28;19973;-75
2022/03/15 09:08:40;;;;;;;;;;;;;;;;;;5068608;28;20035;-75
2022/03/15 09:11:06;;;;;;;;;;;;;;;;;;5068839;28;19983;-75
2022/03/15 09:13:32;;;;;;;;;;;;;;;;;;5068229;28;20302;-76
2022/03/15 09:15:58;;;;;;;;;;;;;;;;;;5068671;28;20099;-75
2022/03/15 09:18:26;;;;;;;;;;;;;;;;;;5058128;28;20468;-74
2022/03/15 09:20:52;;;;;;;;;;;;;;;;;;5065635;28;19925;-75
2022/03/15 09:23:18;;;;;;;;;;;;;;;;;;5068074;28;20417;-75
2022/03/15 09:25:45;;;;;;;;;;;;;;;;;;5068102;28;20422;-75
2022/03/15 09:28:11;;;;;;;;;;;;;;;;;;5068075;28;20002;-75
2022/03/15 09:30:37;;;;;;;;;;;;;;;;;;5068401;28;19967;-75
2022/03/15 09:33:03;;;;;;;;;;;;;;;;;;5068026;28;19971;-75
2022/03/15 09:35:29;;;;;;;;;;;;;;;;;;5067773;28;20259;-75
2022/03/15 09:37:56;;;;;;;;;;;;;;;;;;5067676;28;20380;-75
2022/03/15 09:40:22;;;;;;;;;;;;;;;;;;5067629;28;19951;-75
2022/03/15 09:42:48;;;;;;;;;;;;;;;;;;5067799;28;20059;-76
2022/03/15 09:45:14;;;;;;;;;;;;;;;;;;5068281;28;19928;-75
2022/03/15 09:47:41;;;;;;;;;;;;;;;;;;5065307;28;19928;-75
2022/03/15 09:50:07;;;;;;;;;;;;;;;;;;5059978;28;19940;-75
2022/03/15 09:52:34;;;;;;;;;;;;;;;;;;5067764;28;20048;-74
2022/03/15 09:55:00;;;;;;;;;;;;;;;;;;5068081;28;19928;-75
2022/03/15 09:57:27;;;;;;;;;;;;;;;;;;5067442;28;19974;-75
2022/03/15 09:59:53;;;;;;;;;;;;;;;;;;5067719;28;20372;-75
2022/03/15 10:02:19;;;;;;;;;;;;;;;;;;5067211;28;20337;-75
2022/03/15 10:04:45;;;;;;;;;;;;;;;;;;5067712;28;20353;-75
2022/03/15 10:07:12;;;;;;;;;;;;;;;;;;5068450;28;19952;-76
2022/03/15 10:09:39;;;;;;;;;;;;;;;;;;5067048;28;19947;-75
2022/03/15 10:12:05;;;;;;;;;;;;;;;;;;5067452;28;19924;-75
2022/03/15 10:14:31;;;;;;;;;;;;;;;;;;5067549;28;20368;-75
2022/03/15 10:16:57;;;;;;;;;;;;;;;;;;5065710;28;19928;-75
2022/03/15 10:19:25;;;;;;;;;;;;;;;;;;5054827;28;20019;-75
2022/03/15 10:21:51;;;;;;;;;;;;;;;;;;5064191;28;19932;-75
2022/03/15 10:24:18;;;;;;;;;;;;;;;;;;5067585;28;20529;-75
2022/03/15 10:26:44;;;;;;;;;;;;;;;;;;5067662;28;19936;-76
2022/03/15 10:29:13;;;;;;;;;;;;;;;;;;5067617;28;20334;-75
2022/03/15 10:31:39;;;;;;;;;;;;;;;;;;5066842;28;20233;-73
2022/03/15 10:34:05;;;;;;;;;;;;;;;;;;5066925;28;19948;-74
2022/03/15 10:36:32;;;;;;;;;;;;;;;;;;5067176;28;19954;-75
2022/03/15 10:38:58;;;;;;;;;;;;;;;;;;5067070;28;19928;-74
2022/03/15 10:41:24;;;;;;;;;;;;;;;;;;5066806;28;19924;-75
2022/03/15 10:43:50;;;;;;;;;;;;;;;;;;5067375;28;19925;-75
2022/03/15 10:46:17;;;;;;;;;;;;;;;;;;5063189;28;20008;-75
2022/03/15 10:48:43;;;;;;;;;;;;;;;;;;5067105;28;19928;-75
2022/03/15 10:51:10;;;;;;;;;;;;;;;;;;5066704;28;20148;-75
2022/03/15 10:53:36;;;;;;;;;;;;;;;;;;5066754;28;19928;-76
2022/03/15 10:56:02;;;;;;;;;;;;;;;;;;5067295;28;19939;-76
2022/03/15 10:58:29;;;;;;;;;;;;;;;;;;5067208;28;19939;-76
2022/03/15 11:00:55;;;;;;;;;;;;;;;;;;5067233;28;20515;-76
2022/03/15 11:03:25;;;;;;;;;;;;;;;;;;5067307;28;19925;-76
2022/03/15 11:05:52;;;;;;;;;;;;;;;;;;5067516;28;19936;-75
2022/03/15 11:08:20;;;;;;;;;;;;;;;;;;5077308;28;19924;-76
2022/03/15 11:10:47;;;;;;;;;;;;;;;;;;5075447;28;19928;-76
2022/03/15 11:13:13;;;;;;;;;;;;;;;;;;5070811;28;20617;-76
2022/03/15 11:15:41;;;;;;;;;;;;;;;;;;5071341;28;20022;-76
2022/03/15 11:18:07;;;;;;;;;;;;;;;;;;5061023;28;19929;-76
2022/03/15 11:20:35;;;;;;;;;;;;;;;;;;5063869;28;20010;-76
2022/03/15 11:23:01;;;;;;;;;;;;;;;;;;5067222;28;19928;-75
2022/03/15 11:25:27;;;;;;;;;;;;;;;;;;5070288;28;20365;-76
2022/03/15 11:27:53;;;;;;;;;;;;;;;;;;5070352;28;20411;-75
2022/03/15 11:30:19;;;;;;;;;;;;;;;;;;5070743;28;19935;-76
2022/03/15 11:32:46;;;;;;;;;;;;;;;;;;5070060;28;19928;-74
2022/03/15 11:35:12;;;;;;;;;;;;;;;;;;5070352;28;20416;-74
2022/03/15 11:37:38;;;;;;;;;;;;;;;;;;5070330;28;19951;-74
2022/03/15 11:40:04;;;;;;;;;;;;;;;;;;5070872;28;19936;-75
2022/03/15 11:42:31;;;;;;;;;;;;;;;;;;5071672;28;20019;-75
2022/03/15 11:44:57;;;;;;;;;;;;;;;;;;5070822;28;19976;-75
2022/03/15 11:47:24;;;;;;;;;;;;;;;;;;5067417;28;19932;-76
2022/03/15 11:49:50;;;;;;;;;;;;;;;;;;5067233;28;19928;-75
2022/03/15 11:52:18;;;;;;;;;;;;;;;;;;5071393;28;19924;-75
2022/03/15 11:54:44;;;;;;;;;;;;;;;;;;5071449;28;19928;-76
2022/03/15 11:57:10;;;;;;;;;;;;;;;;;;5071970;28;20058;-75
2022/03/15 11:59:37;;;;;;;;;;;;;;;;;;5071102;28;20330;-75
2022/03/15 12:02:04;;;;;;;;;;;;;;;;;;5071068;28;19928;-75
2022/03/15 12:04:31;;;;;;;;;;;;;;;;;;5071546;28;19932;-76
2022/03/15 12:06:59;;;;;;;;;;;;;;;;;;5071646;28;19964;-76
2022/03/15 12:09:25;;;;;;;;;;;;;;;;;;5071475;28;19924;-75
2022/03/15 12:11:52;;;;;;;;;;;;;;;;;;5071179;28;20490;-75
2022/03/15 12:14:19;;;;;;;;;;;;;;;;;;5071097;28;19929;-74
2022/03/15 12:16:50;;;;;;;;;;;;;;;;;;5070110;28;19925;-75
2022/03/15 12:19:35;;;;;;;;;;;;;;;;;;5063079;28;19935;-76
2022/03/15 12:22:02;;;;;;;;;;;;;;;;;;5066257;28;20335;-75
2022/03/15 12:24:28;;;;;;;;;;;;;;;;;;5070297;28;19935;-76
2022/03/15 12:26:58;;;;;;;;;;;;;;;;;;5070374;28;19959;-77
2022/03/15 12:29:26;;;;;;;;;;;;;;;;;;5070469;28;19928;-76
2022/03/15 12:31:53;;;;;;;;;;;;;;;;;;5072149;28;19970;-76
2022/03/15 12:34:19;;;;;;;;;;;;;;;;;;5071948;28;19946;-77
2022/03/15 12:36:45;;;;;;;;;;;;;;;;;;5071468;28;19925;-75
2022/03/15 12:39:11;;;;;;;;;;;;;;;;;;5069754;28;19924;-75
2022/03/15 12:41:37;;;;;;;;;;;;;;;;;;5069261;28;19924;-77
2022/03/15 12:44:03;;;;;;;;;;;;;;;;;;5070095;28;19933;-75
2022/03/15 12:46:30;;;;;;;;;;;;;;;;;;5070306;28;19928;-75
2022/03/15 12:48:57;;;;;;;;;;;;;;;;;;5063529;28;19936;-75
2022/03/15 12:51:23;;;;;;;;;;;;;;;;;;5084086;28;20019;-76
2022/03/15 12:53:50;;;;;;;;;;;;;;;;;;5087139;28;20345;-75
2022/03/15 12:56:16;;;;;;;;;;;;;;;;;;5086459;28;19924;-77
2022/03/15 12:58:42;;;;;;;;;;;;;;;;;;5087414;28;19992;-77
2022/03/15 13:01:08;;;;;;;;;;;;;;;;;;5087520;28;19924;-76
2022/03/15 13:03:35;;;;;;;;;;;;;;;;;;5087451;28;19969;-76
2022/03/15 13:06:02;;;;;;;;;;;;;;;;;;5087946;28;20013;-77
2022/03/15 13:08:28;;;;;;;;;;;;;;;;;;5087515;28;19935;-76
2022/03/15 13:10:56;;;;;;;;;;;;;;;;;;5087241;28;20407;-75
2022/03/15 13:13:24;;;;;;;;;;;;;;;;;;5068911;28;19986;-75
2022/03/15 13:15:50;;;;;;;;;;;;;;;;;;5069796;28;19955;-76
2022/03/15 13:18:19;;;;;;;;;;;;;;;;;;5063559;28;19935;-76
2022/03/15 13:20:45;;;;;;;;;;;;;;;;;;5061374;28;19935;-75
2022/03/15 13:23:11;;;;;;;;;;;;;;;;;;5068175;28;19931;-75
2022/03/15 13:25:37;;;;;;;;;;;;;;;;;;5068973;28;20442;-75
2022/03/15 13:28:07;;;;;;;;;;;;;;;;;;5057712;28;20008;-75
2022/03/15 13:30:34;;;;;;;;;;;;;;;;;;5066889;28;19929;-75
2022/03/15 13:33:00;;;;;;;;;;;;;;;;;;5067306;28;20270;-76
2022/03/15 13:35:27;;;;;;;;;;;;;;;;;;5068431;28;19959;-75
2022/03/15 13:37:53;;;;;;;;;;;;;;;;;;5067827;28;19935;-76
2022/03/15 13:40:23;;;;;;;;;;;;;;;;;;5068914;28;19928;-73
2022/03/15 13:42:49;;;;;;;;;;;;;;;;;;5068795;28;20365;-75
2022/03/15 13:45:15;;;;;;;;;;;;;;;;;;5068145;28;19928;-75
2022/03/15 13:47:42;;;;;;;;;;;;;;;;;;5062068;28;19925;-75
2022/03/15 13:50:08;;;;;;;;;;;;;;;;;;5066118;28;19928;-75
2022/03/15 13:52:35;;;;;;;;;;;;;;;;;;5062327;28;19932;-75
2022/03/15 13:55:02;;;;;;;;;;;;;;;;;;5068024;28;19928;-75
2022/03/15 13:57:30;;;;;;;;;;;;;;;;;;5058819;28;19924;-75
2022/03/15 13:59:56;;;;;;;;;;;;;;;;;;5063894;28;19938;-75
2022/03/15 14:02:22;;;;;;;;;;;;;;;;;;5067607;28;19928;-75
2022/03/15 14:04:49;;;;;;;;;;;;;;;;;;5067018;28;19994;-76
2022/03/15 14:07:16;;;;;;;;;;;;;;;;;;5067551;28;19938;-77
2022/03/15 14:09:42;;;;;;;;;;;;;;;;;;5067017;28;20019;-75
2022/03/15 14:12:10;;;;;;;;;;;;;;;;;;5067226;28;20025;-75
2022/03/15 14:14:37;;;;;;;;;;;;;;;;;;5067470;28;19924;-76
2022/03/15 14:17:04;;;;;;;;;;;;;;;;;;5064335;28;19932;-74
2022/03/15 14:19:30;;;;;;;;;;;;;;;;;;5064555;28;20011;-75
2022/03/15 14:21:57;;;;;;;;;;;;;;;;;;5066142;28;19925;-75
2022/03/15 14:24:23;;;;;;;;;;;;;;;;;;5069379;28;19962;-76
2022/03/15 14:26:49;;;;;;;;;;;;;;;;;;5067202;28;20356;-76
2022/03/15 14:29:19;;;;;;;;;;;;;;;;;;5066916;28;19935;-76
2022/03/15 14:31:47;;;;;;;;;;;;;;;;;;5066966;28;19928;-76
2022/03/15 14:34:14;;;;;;;;;;;;;;;;;;5066031;28;20293;-73
2022/03/15 14:36:41;;;;;;;;;;;;;;;;;;5067362;28;19950;-73
2022/03/15 14:39:07;;;;;;;;;;;;;;;;;;5066785;28;20284;-74
2022/03/15 14:41:33;;;;;;;;;;;;;;;;;;5066886;28;19935;-74
2022/03/15 14:43:59;;;;;;;;;;;;;;;;;;5067337;28;20420;-76
2022/03/15 14:46:26;;;;;;;;;;;;;;;;;;5064933;28;19928;-74
2022/03/15 14:48:58;;;;;;;;;;;;;;;;;;5062250;28;20079;-75
2022/03/15 14:51:24;;;;;;;;;;;;;;;;;;5070753;28;19929;-74
2022/03/15 14:53:50;;;;;;;;;;;;;;;;;;5066968;28;19924;-75
2022/03/15 14:56:17;;;;;;;;;;;;;;;;;;5067424;28;20322;-75
2022/03/15 14:58:45;;;;;;;;;;;;;;;;;;5067550;28;20171;-75
2022/03/15 15:01:11;;;;;;;;;;;;;;;;;;5066437;28;20090;-75
2022/03/15 15:03:38;;;;;;;;;;;;;;;;;;5056669;28;19944;-74
2022/03/15 15:06:04;;;;;;;;;;;;;;;;;;5065967;28;20072;-75
2022/03/15 15:08:30;;;;;;;;;;;;;;;;;;5060105;28;19929;-75
2022/03/15 15:10:57;;;;;;;;;;;;;;;;;;5064226;28;19924;-74
2022/03/15 15:13:25;;;;;;;;;;;;;;;;;;5064925;28;20255;-74
2022/03/15 15:15:51;;;;;;;;;;;;;;;;;;5061833;28;19928;-75
2022/03/15 15:18:19;;;;;;;;;;;;;;;;;;5054889;28;19925;-75
2022/03/15 15:20:46;;;;;;;;;;;;;;;;;;5061539;28;19933;-75
2022/03/15 15:23:13;;;;;;;;;;;;;;;;;;5066610;28;19936;-75
2022/03/15 15:25:39;;;;;;;;;;;;;;;;;;5066524;28;19944;-74
2022/03/15 15:28:07;;;;;;;;;;;;;;;;;;5056072;28;20114;-74
2022/03/15 15:30:33;;;;;;;;;;;;;;;;;;5064492;28;19935;-74
2022/03/15 15:32:59;;;;;;;;;;;;;;;;;;5066313;28;19937;-73
2022/03/15 15:35:27;;;;;;;;;;;;;;;;;;5066321;28;19935;-73
2022/03/15 15:37:58;;;;;;;;;;;;;;;;;;5063099;28;19939;-74
2022/03/15 15:40:24;;;;;;;;;;;;;;;;;;5061915;28;20028;-74
2022/03/15 15:42:51;;;;;;;;;;;;;;;;;;5058792;28;19928;-76
2022/03/15 15:45:17;;;;;;;;;;;;;;;;;;5052844;28;19955;-74
2022/03/15 15:47:43;;;;;;;;;;;;;;;;;;5054506;28;19936;-76
2022/03/15 15:50:12;;;;;;;;;;;;;;;;;;5062996;28;19925;-73
2022/03/15 15:52:40;;;;;;;;;;;;;;;;;;5055896;28;19928;-75
2022/03/15 15:55:06;;;;;;;;;;;;;;;;;;5061107;28;19947;-75
2022/03/15 15:57:33;;;;;;;;;;;;;;;;;;5059181;28;20019;-74
2022/03/15 15:59:59;;;;;;;;;;;;;;;;;;5064042;28;19955;-74
2022/03/15 16:02:26;;;;;;;;;;;;;;;;;;5068424;28;20298;-75
2022/03/15 16:04:52;;;;;;;;;;;;;;;;;;5067046;28;20324;-74
2022/03/15 16:07:30;;;;;;;;;;;;;;;;;;5071672;28;19928;-71
2022/03/15 16:09:56;;;;;;;;;;;;;;;;;;5074457;28;19928;-71
2022/03/15 16:12:24;;;;;;;;;;;;;;;;;;5079531;28;19928;-71
2022/03/15 16:14:50;;;;;;;;;;;;;;;;;;5082993;28;20000;-71
2022/03/15 16:17:16;;;;;;;;;;;;;;;;;;5085109;28;20421;-70
2022/03/15 16:19:42;;;;;;;;;;;;;;;;;;5081284;28;19934;-70
2022/03/15 16:22:09;;;;;;;;;;;;;;;;;;5079991;28;19928;-76
2022/03/15 16:24:35;;;;;;;;;;;;;;;;;;5083400;28;19935;-73
2022/03/15 16:27:01;;;;;;;;;;;;;;;;;;5079298;28;19928;-74
2022/03/15 16:29:27;;;;;;;;;;;;;;;;;;5071227;28;20074;-74
2022/03/15 16:31:53;;;;;;;;;;;;;;;;;;5076913;28;19928;-76
2022/03/15 16:34:19;;;;;;;;;;;;;;;;;;5073450;28;20353;-73
2022/03/15 16:36:46;;;;;;;;;;;;;;;;;;5060582;28;19929;-72
2022/03/15 16:39:12;;;;;;;;;;;;;;;;;;5069567;28;19931;-70
2022/03/15 16:41:38;;;;;;;;;;;;;;;;;;5070511;28;19940;-70
2022/03/15 16:44:05;;;;;;;;;;;;;;;;;;5057583;28;19931;-71
2022/03/15 16:46:31;;;;;;;;;;;;;;;;;;5062972;28;19975;-71
2022/03/15 16:48:57;;;;;;;;;;;;;;;;;;5068163;28;19932;-71
2022/03/15 16:51:23;;;;;;;;;;;;;;;;;;5070308;28;20360;-71
2022/03/15 16:53:49;;;;;;;;;;;;;;;;;;5063955;28;20083;-71
2022/03/15 16:56:16;;;;;;;;;;;;;;;;;;5066544;28;20298;-71
2022/03/15 17:01:25;;;;;;;;;;;;;;;;;;5047388;28;19948;-69